sensor_id;sensor_type;location;lat;lon;timestamp;P1;durP1;ratioP1;P2;durP2;ratioP2
47329;SDS011;33060;50.178;7.570;2023-04-10T00:01:59;8.87;;;6.83;;
47329;SDS011;33060;50.178;7.570;2023-04-10T00:04:26;8.87;;;6.77;;
47329;SDS011;33060;50.178;7.570;2023-04-10T00:06:53;7.77;;;6.30;;
47329;SDS011;33060;50.178;7.570;2023-04-10T00:09:20;7.30;;;6.53;;
47329;SDS011;33060;50.178;7.570;2023-04-10T00:11:47;8.07;;;7.00;;
47329;SDS011;33060;50.178;7.570;2023-04-10T00:14:14;8.07;;;6.70;;
47329;SDS011;33060;50.178;7.570;2023-04-10T00:16:40;8.40;;;6.60;;
47329;SDS011;33060;50.178;7.570;2023-04-10T00:19:07;7.90;;;6.40;;
47329;SDS011;33060;50.178;7.570;2023-04-10T00:21:34;7.57;;;6.20;;
47329;SDS011;33060;50.178;7.570;2023-04-10T00:24:01;7.07;;;6.23;;
47329;SDS011;33060;50.178;7.570;2023-04-10T00:26:27;7.87;;;6.83;;
47329;SDS011;33060;50.178;7.570;2023-04-10T00:28:54;7.97;;;7.07;;
47329;SDS011;33060;50.178;7.570;2023-04-10T00:31:21;9.50;;;7.13;;
47329;SDS011;33060;50.178;7.570;2023-04-10T00:33:47;8.23;;;6.70;;
47329;SDS011;33060;50.178;7.570;2023-04-10T00:36:14;8.60;;;7.03;;
47329;SDS011;33060;50.178;7.570;2023-04-10T00:38:41;7.23;;;6.37;;
47329;SDS011;33060;50.178;7.570;2023-04-10T00:41:08;8.40;;;6.83;;
47329;SDS011;33060;50.178;7.570;2023-04-10T00:43:35;7.73;;;6.63;;
47329;SDS011;33060;50.178;7.570;2023-04-10T00:46:03;8.23;;;7.10;;
47329;SDS011;33060;50.178;7.570;2023-04-10T00:48:30;8.47;;;6.90;;
47329;SDS011;33060;50.178;7.570;2023-04-10T00:50:56;8.87;;;7.17;;
47329;SDS011;33060;50.178;7.570;2023-04-10T00:53:23;8.00;;;6.57;;
47329;SDS011;33060;50.178;7.570;2023-04-10T00:55:50;8.23;;;6.47;;
47329;SDS011;33060;50.178;7.570;2023-04-10T00:58:17;7.23;;;6.43;;
47329;SDS011;33060;50.178;7.570;2023-04-10T01:00:45;8.50;;;7.40;;
47329;SDS011;33060;50.178;7.570;2023-04-10T01:03:17;8.27;;;7.37;;
47329;SDS011;33060;50.178;7.570;2023-04-10T01:05:48;9.00;;;7.30;;
47329;SDS011;33060;50.178;7.570;2023-04-10T01:08:25;8.33;;;7.30;;
47329;SDS011;33060;50.178;7.570;2023-04-10T01:11:05;8.83;;;7.40;;
47329;SDS011;33060;50.178;7.570;2023-04-10T01:13:52;8.63;;;7.40;;
47329;SDS011;33060;50.178;7.570;2023-04-10T01:16:26;8.50;;;7.40;;
47329;SDS011;33060;50.178;7.570;2023-04-10T01:19:01;9.73;;;7.23;;
47329;SDS011;33060;50.178;7.570;2023-04-10T01:21:37;8.13;;;6.77;;
47329;SDS011;33060;50.178;7.570;2023-04-10T01:29:22;8.00;;;6.97;;
47329;SDS011;33060;50.178;7.570;2023-04-10T01:31:57;8.80;;;7.33;;
47329;SDS011;33060;50.178;7.570;2023-04-10T01:34:50;9.03;;;7.63;;
47329;SDS011;33060;50.178;7.570;2023-04-10T01:37:20;9.03;;;7.30;;
47329;SDS011;33060;50.178;7.570;2023-04-10T01:39:50;8.47;;;7.47;;
47329;SDS011;33060;50.178;7.570;2023-04-10T01:42:21;8.33;;;7.17;;
47329;SDS011;33060;50.178;7.570;2023-04-10T01:44:49;8.60;;;7.10;;
47329;SDS011;33060;50.178;7.570;2023-04-10T01:47:17;9.20;;;7.30;;
47329;SDS011;33060;50.178;7.570;2023-04-10T01:49:45;8.03;;;7.23;;
47329;SDS011;33060;50.178;7.570;2023-04-10T01:52:13;8.43;;;7.00;;
47329;SDS011;33060;50.178;7.570;2023-04-10T01:54:46;8.83;;;7.33;;
47329;SDS011;33060;50.178;7.570;2023-04-10T01:57:20;7.77;;;6.93;;
47329;SDS011;33060;50.178;7.570;2023-04-10T01:59:51;8.37;;;7.30;;
47329;SDS011;33060;50.178;7.570;2023-04-10T02:02:18;8.80;;;7.30;;
47329;SDS011;33060;50.178;7.570;2023-04-10T02:04:45;8.23;;;7.03;;
47329;SDS011;33060;50.178;7.570;2023-04-10T02:08:00;8.27;;;7.03;;
47329;SDS011;33060;50.178;7.570;2023-04-10T02:10:18;8.80;;;7.17;;
47329;SDS011;33060;50.178;7.570;2023-04-10T02:15:22;8.07;;;7.07;;
47329;SDS011;33060;50.178;7.570;2023-04-10T02:17:52;8.37;;;7.00;;
47329;SDS011;33060;50.178;7.570;2023-04-10T02:20:20;8.70;;;6.93;;
47329;SDS011;33060;50.178;7.570;2023-04-10T02:22:48;9.23;;;7.20;;
47329;SDS011;33060;50.178;7.570;2023-04-10T02:25:15;8.50;;;7.60;;
47329;SDS011;33060;50.178;7.570;2023-04-10T02:27:42;9.40;;;7.53;;
47329;SDS011;33060;50.178;7.570;2023-04-10T02:30:10;8.80;;;7.07;;
47329;SDS011;33060;50.178;7.570;2023-04-10T02:32:36;8.53;;;7.60;;
47329;SDS011;33060;50.178;7.570;2023-04-10T02:35:06;9.13;;;8.07;;
47329;SDS011;33060;50.178;7.570;2023-04-10T02:37:35;9.97;;;8.30;;
47329;SDS011;33060;50.178;7.570;2023-04-10T02:40:02;8.23;;;7.27;;
47329;SDS011;33060;50.178;7.570;2023-04-10T02:42:37;10.00;;;8.13;;
47329;SDS011;33060;50.178;7.570;2023-04-10T02:45:04;9.40;;;7.90;;
47329;SDS011;33060;50.178;7.570;2023-04-10T02:47:36;8.67;;;7.70;;
47329;SDS011;33060;50.178;7.570;2023-04-10T02:50:03;9.87;;;8.57;;
47329;SDS011;33060;50.178;7.570;2023-04-10T02:52:34;9.43;;;8.40;;
47329;SDS011;33060;50.178;7.570;2023-04-10T02:55:00;9.23;;;8.23;;
47329;SDS011;33060;50.178;7.570;2023-04-10T02:57:33;9.20;;;7.90;;
47329;SDS011;33060;50.178;7.570;2023-04-10T03:00:00;9.27;;;7.93;;
47329;SDS011;33060;50.178;7.570;2023-04-10T03:02:38;10.20;;;8.30;;
47329;SDS011;33060;50.178;7.570;2023-04-10T03:05:13;9.93;;;7.90;;
47329;SDS011;33060;50.178;7.570;2023-04-10T03:07:39;11.77;;;7.87;;
47329;SDS011;33060;50.178;7.570;2023-04-10T03:10:07;8.90;;;7.60;;
47329;SDS011;33060;50.178;7.570;2023-04-10T03:12:35;9.67;;;7.93;;
47329;SDS011;33060;50.178;7.570;2023-04-10T03:15:01;9.97;;;7.83;;
47329;SDS011;33060;50.178;7.570;2023-04-10T03:17:28;8.80;;;7.73;;
47329;SDS011;33060;50.178;7.570;2023-04-10T03:19:55;9.13;;;8.00;;
47329;SDS011;33060;50.178;7.570;2023-04-10T03:22:21;9.67;;;8.13;;
47329;SDS011;33060;50.178;7.570;2023-04-10T03:24:48;9.93;;;8.23;;
47329;SDS011;33060;50.178;7.570;2023-04-10T03:27:15;9.23;;;8.10;;
47329;SDS011;33060;50.178;7.570;2023-04-10T03:29:42;9.50;;;7.70;;
47329;SDS011;33060;50.178;7.570;2023-04-10T03:32:09;8.53;;;7.63;;
47329;SDS011;33060;50.178;7.570;2023-04-10T03:34:36;8.90;;;7.53;;
47329;SDS011;33060;50.178;7.570;2023-04-10T03:37:03;9.50;;;8.30;;
47329;SDS011;33060;50.178;7.570;2023-04-10T03:39:29;9.43;;;7.73;;
47329;SDS011;33060;50.178;7.570;2023-04-10T03:41:56;9.63;;;7.80;;
47329;SDS011;33060;50.178;7.570;2023-04-10T03:44:23;11.27;;;7.70;;
47329;SDS011;33060;50.178;7.570;2023-04-10T03:46:51;9.97;;;8.13;;
47329;SDS011;33060;50.178;7.570;2023-04-10T03:49:18;9.03;;;7.80;;
47329;SDS011;33060;50.178;7.570;2023-04-10T03:51:45;8.90;;;7.90;;
47329;SDS011;33060;50.178;7.570;2023-04-10T03:54:12;9.50;;;8.00;;
47329;SDS011;33060;50.178;7.570;2023-04-10T03:56:38;10.23;;;7.77;;
47329;SDS011;33060;50.178;7.570;2023-04-10T03:59:05;9.73;;;8.10;;
47329;SDS011;33060;50.178;7.570;2023-04-10T04:01:37;9.57;;;8.43;;
47329;SDS011;33060;50.178;7.570;2023-04-10T04:04:08;8.83;;;7.87;;
47329;SDS011;33060;50.178;7.570;2023-04-10T04:07:11;10.03;;;7.60;;
47329;SDS011;33060;50.178;7.570;2023-04-10T04:09:54;9.30;;;7.60;;
47329;SDS011;33060;50.178;7.570;2023-04-10T04:12:40;8.97;;;7.97;;
47329;SDS011;33060;50.178;7.570;2023-04-10T04:15:37;8.77;;;7.50;;
47329;SDS011;33060;50.178;7.570;2023-04-10T04:18:15;9.37;;;7.90;;
47329;SDS011;33060;50.178;7.570;2023-04-10T04:20:46;8.83;;;7.47;;
47329;SDS011;33060;50.178;7.570;2023-04-10T04:23:18;9.87;;;8.07;;
47329;SDS011;33060;50.178;7.570;2023-04-10T04:26:05;10.13;;;8.13;;
47329;SDS011;33060;50.178;7.570;2023-04-10T04:28:50;9.70;;;8.07;;
47329;SDS011;33060;50.178;7.570;2023-04-10T04:31:28;9.63;;;8.17;;
47329;SDS011;33060;50.178;7.570;2023-04-10T04:34:16;9.70;;;7.80;;
47329;SDS011;33060;50.178;7.570;2023-04-10T04:36:46;9.97;;;8.03;;
47329;SDS011;33060;50.178;7.570;2023-04-10T04:39:36;9.13;;;7.83;;
47329;SDS011;33060;50.178;7.570;2023-04-10T04:42:22;10.27;;;8.37;;
47329;SDS011;33060;50.178;7.570;2023-04-10T04:45:09;10.37;;;8.43;;
47329;SDS011;33060;50.178;7.570;2023-04-10T04:47:54;11.20;;;8.73;;
47329;SDS011;33060;50.178;7.570;2023-04-10T04:50:46;10.10;;;8.90;;
47329;SDS011;33060;50.178;7.570;2023-04-10T04:53:33;10.60;;;8.67;;
47329;SDS011;33060;50.178;7.570;2023-04-10T04:56:14;10.87;;;8.67;;
47329;SDS011;33060;50.178;7.570;2023-04-10T04:58:41;10.13;;;8.87;;
47329;SDS011;33060;50.178;7.570;2023-04-10T05:01:28;11.40;;;9.07;;
47329;SDS011;33060;50.178;7.570;2023-04-10T05:04:15;9.50;;;7.83;;
47329;SDS011;33060;50.178;7.570;2023-04-10T05:07:12;11.23;;;9.20;;
47329;SDS011;33060;50.178;7.570;2023-04-10T05:10:03;10.10;;;8.70;;
47329;SDS011;33060;50.178;7.570;2023-04-10T05:12:47;9.40;;;8.27;;
47329;SDS011;33060;50.178;7.570;2023-04-10T05:15:21;9.47;;;8.13;;
47329;SDS011;33060;50.178;7.570;2023-04-10T05:18:08;10.77;;;8.27;;
47329;SDS011;33060;50.178;7.570;2023-04-10T05:20:52;9.30;;;8.20;;
47329;SDS011;33060;50.178;7.570;2023-04-10T05:23:39;10.70;;;8.93;;
47329;SDS011;33060;50.178;7.570;2023-04-10T05:26:24;9.03;;;8.07;;
47329;SDS011;33060;50.178;7.570;2023-04-10T05:29:07;9.37;;;8.00;;
47329;SDS011;33060;50.178;7.570;2023-04-10T05:31:52;10.93;;;8.37;;
47329;SDS011;33060;50.178;7.570;2023-04-10T05:34:42;9.20;;;7.83;;
47329;SDS011;33060;50.178;7.570;2023-04-10T05:37:32;10.47;;;8.50;;
47329;SDS011;33060;50.178;7.570;2023-04-10T05:40:17;10.13;;;8.53;;
47329;SDS011;33060;50.178;7.570;2023-04-10T05:43:02;10.10;;;8.23;;
47329;SDS011;33060;50.178;7.570;2023-04-10T05:45:43;8.57;;;7.40;;
47329;SDS011;33060;50.178;7.570;2023-04-10T05:48:32;9.10;;;7.87;;
47329;SDS011;33060;50.178;7.570;2023-04-10T05:51:15;9.17;;;8.20;;
47329;SDS011;33060;50.178;7.570;2023-04-10T05:54:00;9.37;;;8.17;;
47329;SDS011;33060;50.178;7.570;2023-04-10T05:56:46;8.70;;;7.20;;
47329;SDS011;33060;50.178;7.570;2023-04-10T05:59:33;8.90;;;7.73;;
47329;SDS011;33060;50.178;7.570;2023-04-10T06:02:20;10.30;;;7.27;;
47329;SDS011;33060;50.178;7.570;2023-04-10T06:04:48;8.37;;;7.03;;
47329;SDS011;33060;50.178;7.570;2023-04-10T06:07:15;8.80;;;7.23;;
47329;SDS011;33060;50.178;7.570;2023-04-10T06:09:41;8.63;;;7.27;;
47329;SDS011;33060;50.178;7.570;2023-04-10T06:12:09;8.97;;;6.97;;
47329;SDS011;33060;50.178;7.570;2023-04-10T06:14:37;8.03;;;7.10;;
47329;SDS011;33060;50.178;7.570;2023-04-10T06:17:04;8.30;;;6.53;;
47329;SDS011;33060;50.178;7.570;2023-04-10T06:19:31;7.27;;;6.57;;
47329;SDS011;33060;50.178;7.570;2023-04-10T06:21:58;7.47;;;6.67;;
47329;SDS011;33060;50.178;7.570;2023-04-10T06:24:25;7.37;;;6.20;;
47329;SDS011;33060;50.178;7.570;2023-04-10T06:26:53;7.03;;;6.13;;
47329;SDS011;33060;50.178;7.570;2023-04-10T06:29:22;7.90;;;7.10;;
47329;SDS011;33060;50.178;7.570;2023-04-10T06:31:49;7.27;;;6.57;;
47329;SDS011;33060;50.178;7.570;2023-04-10T06:34:16;8.37;;;6.43;;
47329;SDS011;33060;50.178;7.570;2023-04-10T06:37:04;7.23;;;6.07;;
47329;SDS011;33060;50.178;7.570;2023-04-10T06:39:31;6.30;;;5.70;;
47329;SDS011;33060;50.178;7.570;2023-04-10T06:41:57;6.80;;;6.07;;
47329;SDS011;33060;50.178;7.570;2023-04-10T06:44:40;6.60;;;5.90;;
47329;SDS011;33060;50.178;7.570;2023-04-10T06:47:07;6.57;;;5.93;;
47329;SDS011;33060;50.178;7.570;2023-04-10T06:49:34;6.97;;;6.13;;
47329;SDS011;33060;50.178;7.570;2023-04-10T06:52:01;7.40;;;5.87;;
47329;SDS011;33060;50.178;7.570;2023-04-10T06:54:27;7.17;;;5.63;;
47329;SDS011;33060;50.178;7.570;2023-04-10T06:56:54;6.57;;;5.87;;
47329;SDS011;33060;50.178;7.570;2023-04-10T06:59:24;6.43;;;5.70;;
47329;SDS011;33060;50.178;7.570;2023-04-10T07:01:50;7.03;;;5.97;;
47329;SDS011;33060;50.178;7.570;2023-04-10T07:04:17;6.27;;;5.67;;
47329;SDS011;33060;50.178;7.570;2023-04-10T07:06:44;6.43;;;5.83;;
47329;SDS011;33060;50.178;7.570;2023-04-10T07:09:11;6.33;;;5.30;;
47329;SDS011;33060;50.178;7.570;2023-04-10T07:11:37;7.40;;;6.40;;
47329;SDS011;33060;50.178;7.570;2023-04-10T07:14:04;6.23;;;5.50;;
47329;SDS011;33060;50.178;7.570;2023-04-10T07:16:31;7.37;;;6.03;;
47329;SDS011;33060;50.178;7.570;2023-04-10T07:18:58;6.33;;;5.73;;
47329;SDS011;33060;50.178;7.570;2023-04-10T07:21:24;6.67;;;5.97;;
47329;SDS011;33060;50.178;7.570;2023-04-10T07:23:52;6.77;;;6.07;;
47329;SDS011;33060;50.178;7.570;2023-04-10T07:26:19;6.47;;;5.80;;
47329;SDS011;33060;50.178;7.570;2023-04-10T07:28:45;6.50;;;5.47;;
47329;SDS011;33060;50.178;7.570;2023-04-10T07:31:12;5.97;;;5.38;;
47329;SDS011;33060;50.178;7.570;2023-04-10T07:33:39;6.50;;;5.90;;
47329;SDS011;33060;50.178;7.570;2023-04-10T07:36:06;6.95;;;5.50;;
47329;SDS011;33060;50.178;7.570;2023-04-10T07:38:33;5.80;;;5.20;;
47329;SDS011;33060;50.178;7.570;2023-04-10T07:41:00;6.60;;;5.72;;
47329;SDS011;33060;50.178;7.570;2023-04-10T07:43:26;5.95;;;5.32;;
47329;SDS011;33060;50.178;7.570;2023-04-10T07:45:54;5.88;;;5.28;;
47329;SDS011;33060;50.178;7.570;2023-04-10T07:48:21;5.75;;;5.15;;
47329;SDS011;33060;50.178;7.570;2023-04-10T07:50:48;6.28;;;5.38;;
47329;SDS011;33060;50.178;7.570;2023-04-10T07:53:15;6.10;;;5.50;;
47329;SDS011;33060;50.178;7.570;2023-04-10T07:55:42;6.72;;;6.03;;
47329;SDS011;33060;50.178;7.570;2023-04-10T07:58:10;6.35;;;5.72;;
47329;SDS011;33060;50.178;7.570;2023-04-10T08:00:37;6.35;;;5.35;;
47329;SDS011;33060;50.178;7.570;2023-04-10T08:03:10;7.38;;;5.70;;
47329;SDS011;33060;50.178;7.570;2023-04-10T08:05:49;6.00;;;5.32;;
47329;SDS011;33060;50.178;7.570;2023-04-10T08:08:16;6.05;;;5.43;;
47329;SDS011;33060;50.178;7.570;2023-04-10T08:10:42;6.25;;;5.63;;
47329;SDS011;33060;50.178;7.570;2023-04-10T08:13:09;5.97;;;5.38;;
47329;SDS011;33060;50.178;7.570;2023-04-10T08:15:36;5.85;;;5.25;;
47329;SDS011;33060;50.178;7.570;2023-04-10T08:18:02;6.03;;;5.43;;
47329;SDS011;33060;50.178;7.570;2023-04-10T08:20:29;5.63;;;5.10;;
47329;SDS011;33060;50.178;7.570;2023-04-10T08:23:02;5.65;;;5.15;;
47329;SDS011;33060;50.178;7.570;2023-04-10T08:25:45;5.95;;;5.35;;
47329;SDS011;33060;50.178;7.570;2023-04-10T08:28:12;5.85;;;5.25;;
47329;SDS011;33060;50.178;7.570;2023-04-10T08:30:39;6.97;;;5.68;;
47329;SDS011;33060;50.178;7.570;2023-04-10T08:33:06;6.35;;;5.55;;
47329;SDS011;33060;50.178;7.570;2023-04-10T08:35:32;5.60;;;5.10;;
47329;SDS011;33060;50.178;7.570;2023-04-10T08:37:59;5.60;;;5.03;;
47329;SDS011;33060;50.178;7.570;2023-04-10T08:40:39;6.10;;;5.50;;
47329;SDS011;33060;50.178;7.570;2023-04-10T08:43:05;5.38;;;4.80;;
47329;SDS011;33060;50.178;7.570;2023-04-10T08:45:32;5.40;;;4.82;;
47329;SDS011;33060;50.178;7.570;2023-04-10T08:48:00;5.20;;;4.70;;
47329;SDS011;33060;50.178;7.570;2023-04-10T08:50:30;5.30;;;4.80;;
47329;SDS011;33060;50.178;7.570;2023-04-10T08:53:03;5.40;;;4.90;;
47329;SDS011;33060;50.178;7.570;2023-04-10T08:55:37;4.72;;;4.20;;
47329;SDS011;33060;50.178;7.570;2023-04-10T08:58:05;5.57;;;4.70;;
47329;SDS011;33060;50.178;7.570;2023-04-10T09:00:33;5.38;;;4.88;;
47329;SDS011;33060;50.178;7.570;2023-04-10T09:03:09;5.70;;;4.35;;
47329;SDS011;33060;50.178;7.570;2023-04-10T09:05:44;5.25;;;4.68;;
47329;SDS011;33060;50.178;7.570;2023-04-10T09:08:10;4.65;;;4.25;;
47329;SDS011;33060;50.178;7.570;2023-04-10T09:10:40;5.15;;;4.65;;
47329;SDS011;33060;50.178;7.570;2023-04-10T09:13:07;4.30;;;3.90;;
47329;SDS011;33060;50.178;7.570;2023-04-10T09:18:39;4.82;;;4.32;;
47329;SDS011;33060;50.178;7.570;2023-04-10T09:21:06;4.50;;;4.10;;
47329;SDS011;33060;50.178;7.570;2023-04-10T09:23:33;4.18;;;3.78;;
47329;SDS011;33060;50.178;7.570;2023-04-10T09:26:00;4.13;;;3.72;;
47329;SDS011;33060;50.178;7.570;2023-04-10T09:28:26;4.10;;;3.70;;
47329;SDS011;33060;50.178;7.570;2023-04-10T09:30:53;3.63;;;3.33;;
47329;SDS011;33060;50.178;7.570;2023-04-10T09:35:50;4.10;;;3.70;;
47329;SDS011;33060;50.178;7.570;2023-04-10T09:38:17;4.18;;;3.78;;
47329;SDS011;33060;50.178;7.570;2023-04-10T09:40:46;4.30;;;3.90;;
47329;SDS011;33060;50.178;7.570;2023-04-10T09:45:46;4.15;;;3.75;;
47329;SDS011;33060;50.178;7.570;2023-04-10T09:48:14;5.85;;;5.20;;
47329;SDS011;33060;50.178;7.570;2023-04-10T09:50:41;4.80;;;4.30;;
47329;SDS011;33060;50.178;7.570;2023-04-10T09:53:09;6.47;;;4.78;;
47329;SDS011;33060;50.178;7.570;2023-04-10T09:55:38;5.80;;;4.20;;
47329;SDS011;33060;50.178;7.570;2023-04-10T09:58:07;3.90;;;3.45;;
47329;SDS011;33060;50.178;7.570;2023-04-10T10:00:44;3.70;;;3.35;;
47329;SDS011;33060;50.178;7.570;2023-04-10T10:03:16;3.92;;;3.33;;
47329;SDS011;33060;50.178;7.570;2023-04-10T10:05:44;5.03;;;3.15;;
47329;SDS011;33060;50.178;7.570;2023-04-10T10:08:13;4.13;;;3.72;;
47329;SDS011;33060;50.178;7.570;2023-04-10T10:10:43;4.18;;;3.78;;
47329;SDS011;33060;50.178;7.570;2023-04-10T10:13:15;3.90;;;3.50;;
47329;SDS011;33060;50.178;7.570;2023-04-10T10:21:47;4.35;;;3.95;;
47329;SDS011;33060;50.178;7.570;2023-04-10T10:24:14;3.83;;;3.42;;
47329;SDS011;33060;50.178;7.570;2023-04-10T10:26:42;4.55;;;4.10;;
47329;SDS011;33060;50.178;7.570;2023-04-10T10:29:10;4.07;;;3.60;;
47329;SDS011;33060;50.178;7.570;2023-04-10T10:31:39;3.90;;;3.50;;
47329;SDS011;33060;50.178;7.570;2023-04-10T10:34:06;3.97;;;3.58;;
47329;SDS011;33060;50.178;7.570;2023-04-10T10:36:35;3.65;;;3.35;;
47329;SDS011;33060;50.178;7.570;2023-04-10T10:42:01;5.00;;;4.50;;
47329;SDS011;33060;50.178;7.570;2023-04-10T10:47:14;5.72;;;5.13;;
47329;SDS011;33060;50.178;7.570;2023-04-10T10:49:53;4.97;;;4.32;;
47329;SDS011;33060;50.178;7.570;2023-04-10T10:55:26;3.90;;;3.45;;
47329;SDS011;33060;50.178;7.570;2023-04-10T10:57:57;3.90;;;3.50;;
47329;SDS011;33060;50.178;7.570;2023-04-10T11:01:03;3.63;;;3.33;;
47329;SDS011;33060;50.178;7.570;2023-04-10T11:05:55;3.40;;;3.10;;
47329;SDS011;33060;50.178;7.570;2023-04-10T11:11:05;4.00;;;3.58;;
47329;SDS011;33060;50.178;7.570;2023-04-10T11:19:06;3.90;;;3.50;;
47329;SDS011;33060;50.178;7.570;2023-04-10T11:24:28;4.18;;;3.72;;
47329;SDS011;33060;50.178;7.570;2023-04-10T11:26:55;4.25;;;3.85;;
47329;SDS011;33060;50.178;7.570;2023-04-10T11:31:56;3.90;;;3.50;;
47329;SDS011;33060;50.178;7.570;2023-04-10T11:34:24;4.30;;;3.90;;
47329;SDS011;33060;50.178;7.570;2023-04-10T11:37:01;4.10;;;3.70;;
47329;SDS011;33060;50.178;7.570;2023-04-10T11:39:29;4.03;;;3.72;;
47329;SDS011;33060;50.178;7.570;2023-04-10T11:41:56;4.05;;;3.65;;
47329;SDS011;33060;50.178;7.570;2023-04-10T11:46:54;4.50;;;4.10;;
47329;SDS011;33060;50.178;7.570;2023-04-10T11:49:21;4.20;;;3.80;;
47329;SDS011;33060;50.178;7.570;2023-04-10T11:51:53;4.30;;;3.90;;
47329;SDS011;33060;50.178;7.570;2023-04-10T11:54:21;4.10;;;3.65;;
47329;SDS011;33060;50.178;7.570;2023-04-10T11:59:32;4.40;;;3.92;;
47329;SDS011;33060;50.178;7.570;2023-04-10T12:02:06;4.93;;;3.85;;
47329;SDS011;33060;50.178;7.570;2023-04-10T12:04:35;4.53;;;3.72;;
47329;SDS011;33060;50.178;7.570;2023-04-10T12:07:03;3.90;;;3.50;;
47329;SDS011;33060;50.178;7.570;2023-04-10T12:09:29;4.40;;;3.95;;
47329;SDS011;33060;50.178;7.570;2023-04-10T12:12:05;4.25;;;3.83;;
47329;SDS011;33060;50.178;7.570;2023-04-10T12:14:36;4.50;;;4.10;;
47329;SDS011;33060;50.178;7.570;2023-04-10T12:17:05;4.57;;;3.92;;
47329;SDS011;33060;50.178;7.570;2023-04-10T12:19:34;4.63;;;4.18;;
47329;SDS011;33060;50.178;7.570;2023-04-10T12:22:01;4.22;;;3.83;;
47329;SDS011;33060;50.178;7.570;2023-04-10T12:24:47;4.15;;;3.78;;
47329;SDS011;33060;50.178;7.570;2023-04-10T12:29:43;4.03;;;3.60;;
47329;SDS011;33060;50.178;7.570;2023-04-10T12:32:11;4.20;;;3.80;;
47329;SDS011;33060;50.178;7.570;2023-04-10T12:34:38;4.22;;;3.60;;
47329;SDS011;33060;50.178;7.570;2023-04-10T12:37:05;4.50;;;4.10;;
47329;SDS011;33060;50.178;7.570;2023-04-10T12:39:33;4.10;;;3.70;;
47329;SDS011;33060;50.178;7.570;2023-04-10T12:44:56;3.88;;;3.50;;
47329;SDS011;33060;50.178;7.570;2023-04-10T12:47:24;4.60;;;4.20;;
47329;SDS011;33060;50.178;7.570;2023-04-10T12:52:39;4.53;;;4.13;;
47329;SDS011;33060;50.178;7.570;2023-04-10T12:55:11;4.22;;;3.83;;
47329;SDS011;33060;50.178;7.570;2023-04-10T12:57:38;4.05;;;3.67;;
47329;SDS011;33060;50.178;7.570;2023-04-10T13:00:07;5.00;;;4.57;;
47329;SDS011;33060;50.178;7.570;2023-04-10T13:02:44;3.70;;;3.40;;
47329;SDS011;33060;50.178;7.570;2023-04-10T13:05:12;4.80;;;3.30;;
47329;SDS011;33060;50.178;7.570;2023-04-10T13:07:40;4.10;;;3.67;;
47329;SDS011;33060;50.178;7.570;2023-04-10T13:10:07;3.55;;;3.25;;
47329;SDS011;33060;50.178;7.570;2023-04-10T13:12:34;3.50;;;3.20;;
47329;SDS011;33060;50.178;7.570;2023-04-10T13:15:03;3.30;;;3.00;;
47329;SDS011;33060;50.178;7.570;2023-04-10T13:17:30;3.60;;;3.30;;
47329;SDS011;33060;50.178;7.570;2023-04-10T13:19:56;3.58;;;3.28;;
47329;SDS011;33060;50.178;7.570;2023-04-10T13:22:23;3.38;;;3.08;;
47329;SDS011;33060;50.178;7.570;2023-04-10T13:24:50;3.10;;;2.80;;
47329;SDS011;33060;50.178;7.570;2023-04-10T13:27:16;3.60;;;3.00;;
47329;SDS011;33060;50.178;7.570;2023-04-10T13:29:43;3.40;;;3.10;;
47329;SDS011;33060;50.178;7.570;2023-04-10T13:32:09;3.50;;;3.20;;
47329;SDS011;33060;50.178;7.570;2023-04-10T13:34:36;3.25;;;2.95;;
47329;SDS011;33060;50.178;7.570;2023-04-10T13:37:03;1.95;;;1.75;;
47329;SDS011;33060;50.178;7.570;2023-04-10T13:39:30;2.55;;;1.70;;
47329;SDS011;33060;50.178;7.570;2023-04-10T13:41:57;2.60;;;1.55;;
47329;SDS011;33060;50.178;7.570;2023-04-10T13:44:24;1.80;;;1.50;;
47329;SDS011;33060;50.178;7.570;2023-04-10T13:46:51;3.40;;;1.50;;
47329;SDS011;33060;50.178;7.570;2023-04-10T13:49:18;2.58;;;1.75;;
47329;SDS011;33060;50.178;7.570;2023-04-10T13:51:47;1.65;;;1.40;;
47329;SDS011;33060;50.178;7.570;2023-04-10T13:54:14;2.55;;;1.73;;
47329;SDS011;33060;50.178;7.570;2023-04-10T13:56:42;2.88;;;1.33;;
47329;SDS011;33060;50.178;7.570;2023-04-10T13:59:11;2.00;;;1.58;;
47329;SDS011;33060;50.178;7.570;2023-04-10T14:01:38;1.60;;;1.40;;
47329;SDS011;33060;50.178;7.570;2023-04-10T14:04:05;1.75;;;1.40;;
47329;SDS011;33060;50.178;7.570;2023-04-10T14:06:32;1.65;;;1.38;;
47329;SDS011;33060;50.178;7.570;2023-04-10T14:08:58;1.77;;;1.40;;
47329;SDS011;33060;50.178;7.570;2023-04-10T14:11:25;1.77;;;1.50;;
47329;SDS011;33060;50.178;7.570;2023-04-10T14:13:52;1.55;;;1.30;;
47329;SDS011;33060;50.178;7.570;2023-04-10T14:16:18;2.00;;;1.40;;
47329;SDS011;33060;50.178;7.570;2023-04-10T14:18:45;1.38;;;1.20;;
47329;SDS011;33060;50.178;7.570;2023-04-10T14:21:12;1.60;;;1.30;;
47329;SDS011;33060;50.178;7.570;2023-04-10T14:23:39;1.65;;;1.40;;
47329;SDS011;33060;50.178;7.570;2023-04-10T14:26:06;1.42;;;1.27;;
47329;SDS011;33060;50.178;7.570;2023-04-10T14:28:33;2.00;;;1.30;;
47329;SDS011;33060;50.178;7.570;2023-04-10T14:30:59;1.70;;;1.30;;
47329;SDS011;33060;50.178;7.570;2023-04-10T14:33:26;1.60;;;1.15;;
47329;SDS011;33060;50.178;7.570;2023-04-10T14:35:53;1.50;;;1.10;;
47329;SDS011;33060;50.178;7.570;2023-04-10T14:38:20;1.65;;;1.38;;
47329;SDS011;33060;50.178;7.570;2023-04-10T14:40:46;2.17;;;1.38;;
47329;SDS011;33060;50.178;7.570;2023-04-10T14:43:15;2.17;;;1.67;;
47329;SDS011;33060;50.178;7.570;2023-04-10T14:45:44;1.58;;;1.40;;
47329;SDS011;33060;50.178;7.570;2023-04-10T14:48:11;1.55;;;1.30;;
47329;SDS011;33060;50.178;7.570;2023-04-10T14:50:38;1.60;;;1.30;;
47329;SDS011;33060;50.178;7.570;2023-04-10T14:53:05;2.72;;;1.63;;
47329;SDS011;33060;50.178;7.570;2023-04-10T14:55:35;1.73;;;1.40;;
47329;SDS011;33060;50.178;7.570;2023-04-10T14:58:02;1.58;;;1.40;;
47329;SDS011;33060;50.178;7.570;2023-04-10T15:00:30;3.80;;;1.60;;
47329;SDS011;33060;50.178;7.570;2023-04-10T15:02:57;1.77;;;1.50;;
47329;SDS011;33060;50.178;7.570;2023-04-10T15:05:24;1.67;;;1.50;;
47329;SDS011;33060;50.178;7.570;2023-04-10T15:07:52;2.13;;;1.60;;
47329;SDS011;33060;50.178;7.570;2023-04-10T15:10:19;2.72;;;1.80;;
47329;SDS011;33060;50.178;7.570;2023-04-10T15:12:46;1.77;;;1.48;;
47329;SDS011;33060;50.178;7.570;2023-04-10T15:15:13;2.20;;;1.90;;
47329;SDS011;33060;50.178;7.570;2023-04-10T15:17:39;1.90;;;1.70;;
47329;SDS011;33060;50.178;7.570;2023-04-10T15:20:06;2.75;;;1.52;;
47329;SDS011;33060;50.178;7.570;2023-04-10T15:22:33;2.45;;;1.90;;
47329;SDS011;33060;50.178;7.570;2023-04-10T15:25:01;2.55;;;2.20;;
47329;SDS011;33060;50.178;7.570;2023-04-10T15:27:28;2.28;;;2.05;;
47329;SDS011;33060;50.178;7.570;2023-04-10T15:29:54;2.40;;;1.92;;
47329;SDS011;33060;50.178;7.570;2023-04-10T15:32:21;2.40;;;2.20;;
47329;SDS011;33060;50.178;7.570;2023-04-10T15:34:48;2.45;;;1.98;;
47329;SDS011;33060;50.178;7.570;2023-04-10T15:37:14;2.50;;;2.30;;
47329;SDS011;33060;50.178;7.570;2023-04-10T15:39:41;3.17;;;2.70;;
47329;SDS011;33060;50.178;7.570;2023-04-10T15:42:07;2.72;;;2.22;;
47329;SDS011;33060;50.178;7.570;2023-04-10T15:44:34;2.42;;;2.22;;
47329;SDS011;33060;50.178;7.570;2023-04-10T15:47:01;2.53;;;2.33;;
47329;SDS011;33060;50.178;7.570;2023-04-10T15:49:29;2.28;;;2.08;;
47329;SDS011;33060;50.178;7.570;2023-04-10T15:52:06;2.28;;;1.98;;
47329;SDS011;33060;50.178;7.570;2023-04-10T15:54:33;2.45;;;2.25;;
47329;SDS011;33060;50.178;7.570;2023-04-10T15:57:02;2.35;;;2.10;;
47329;SDS011;33060;50.178;7.570;2023-04-10T15:59:29;2.17;;;1.90;;
47329;SDS011;33060;50.178;7.570;2023-04-10T16:01:55;3.53;;;3.08;;
47329;SDS011;33060;50.178;7.570;2023-04-10T16:04:22;3.90;;;2.10;;
47329;SDS011;33060;50.178;7.570;2023-04-10T16:06:49;2.03;;;1.67;;
47329;SDS011;33060;50.178;7.570;2023-04-10T16:09:16;1.90;;;1.50;;